sensor_id;sensor_type;location;lat;lon;timestamp;P1;durP1;ratioP1;P2;durP2;ratioP2
54125;SDS011;40360;52.992;6.796;2023-07-20T00:01:21;7.63;;;6.32;;
54125;SDS011;40360;52.992;6.796;2023-07-20T00:03:46;6.95;;;6.07;;
54125;SDS011;40360;52.992;6.796;2023-07-20T00:06:19;6.65;;;6.05;;
54125;SDS011;40360;52.992;6.796;2023-07-20T00:08:50;6.05;;;5.45;;
54125;SDS011;40360;52.992;6.796;2023-07-20T00:11:19;8.10;;;7.00;;
54125;SDS011;40360;52.992;6.796;2023-07-20T00:13:45;7.35;;;5.18;;
54125;SDS011;40360;52.992;6.796;2023-07-20T00:16:10;6.10;;;5.50;;
54125;SDS011;40360;52.992;6.796;2023-07-20T00:18:36;7.53;;;6.30;;
54125;SDS011;40360;52.992;6.796;2023-07-20T00:21:01;5.28;;;4.78;;
54125;SDS011;40360;52.992;6.796;2023-07-20T00:23:27;8.52;;;5.30;;
54125;SDS011;40360;52.992;6.796;2023-07-20T00:25:53;7.93;;;5.15;;
54125;SDS011;40360;52.992;6.796;2023-07-20T00:28:19;7.18;;;5.25;;
54125;SDS011;40360;52.992;6.796;2023-07-20T00:30:45;5.32;;;4.50;;
54125;SDS011;40360;52.992;6.796;2023-07-20T00:33:11;6.00;;;4.45;;
54125;SDS011;40360;52.992;6.796;2023-07-20T00:35:37;4.38;;;3.60;;
54125;SDS011;40360;52.992;6.796;2023-07-20T00:38:03;5.25;;;4.65;;
54125;SDS011;40360;52.992;6.796;2023-07-20T00:40:39;6.22;;;3.78;;
54125;SDS011;40360;52.992;6.796;2023-07-20T00:43:05;4.15;;;3.53;;
54125;SDS011;40360;52.992;6.796;2023-07-20T00:45:31;4.97;;;3.47;;
54125;SDS011;40360;52.992;6.796;2023-07-20T00:47:58;2.67;;;2.45;;
54125;SDS011;40360;52.992;6.796;2023-07-20T00:50:24;3.58;;;3.05;;
54125;SDS011;40360;52.992;6.796;2023-07-20T00:52:51;4.05;;;2.88;;
54125;SDS011;40360;52.992;6.796;2023-07-20T00:55:18;2.83;;;2.53;;
54125;SDS011;40360;52.992;6.796;2023-07-20T00:57:44;3.15;;;2.20;;
54125;SDS011;40360;52.992;6.796;2023-07-20T01:00:10;3.70;;;2.22;;
54125;SDS011;40360;52.992;6.796;2023-07-20T01:02:36;2.83;;;1.80;;
54125;SDS011;40360;52.992;6.796;2023-07-20T01:05:02;4.05;;;2.65;;
54125;SDS011;40360;52.992;6.796;2023-07-20T01:07:34;1.35;;;1.17;;
54125;SDS011;40360;52.992;6.796;2023-07-20T01:10:01;3.88;;;1.90;;
54125;SDS011;40360;52.992;6.796;2023-07-20T01:12:43;5.38;;;1.65;;
54125;SDS011;40360;52.992;6.796;2023-07-20T01:15:11;2.05;;;1.23;;
54125;SDS011;40360;52.992;6.796;2023-07-20T01:17:37;1.60;;;1.40;;
54125;SDS011;40360;52.992;6.796;2023-07-20T01:20:03;1.83;;;1.33;;
54125;SDS011;40360;52.992;6.796;2023-07-20T01:33:48;4.15;;;1.65;;
54125;SDS011;40360;52.992;6.796;2023-07-20T01:36:15;1.88;;;1.30;;
54125;SDS011;40360;52.992;6.796;2023-07-20T01:38:42;3.65;;;1.80;;
54125;SDS011;40360;52.992;6.796;2023-07-20T01:41:09;2.47;;;1.67;;
54125;SDS011;40360;52.992;6.796;2023-07-20T01:43:35;2.70;;;2.00;;
54125;SDS011;40360;52.992;6.796;2023-07-20T01:46:01;2.75;;;1.70;;
54125;SDS011;40360;52.992;6.796;2023-07-20T01:48:27;3.35;;;1.88;;
54125;SDS011;40360;52.992;6.796;2023-07-20T01:50:52;3.13;;;1.92;;
54125;SDS011;40360;52.992;6.796;2023-07-20T01:53:18;2.45;;;2.25;;
54125;SDS011;40360;52.992;6.796;2023-07-20T01:55:45;2.53;;;2.33;;
54125;SDS011;40360;52.992;6.796;2023-07-20T01:58:11;3.83;;;2.30;;
54125;SDS011;40360;52.992;6.796;2023-07-20T02:00:37;7.47;;;2.58;;
54125;SDS011;40360;52.992;6.796;2023-07-20T02:03:02;7.53;;;3.60;;
54125;SDS011;40360;52.992;6.796;2023-07-20T02:05:28;5.38;;;3.00;;
54125;SDS011;40360;52.992;6.796;2023-07-20T02:07:54;5.22;;;2.80;;
54125;SDS011;40360;52.992;6.796;2023-07-20T02:10:19;12.50;;;2.92;;
54125;SDS011;40360;52.992;6.796;2023-07-20T02:12:45;4.28;;;3.15;;
54125;SDS011;40360;52.992;6.796;2023-07-20T02:15:11;5.35;;;3.15;;
54125;SDS011;40360;52.992;6.796;2023-07-20T02:17:38;6.35;;;3.85;;
54125;SDS011;40360;52.992;6.796;2023-07-20T02:20:06;5.20;;;3.28;;
54125;SDS011;40360;52.992;6.796;2023-07-20T02:22:36;5.55;;;3.50;;
54125;SDS011;40360;52.992;6.796;2023-07-20T02:25:03;7.47;;;3.72;;
54125;SDS011;40360;52.992;6.796;2023-07-20T02:27:33;7.03;;;3.80;;
54125;SDS011;40360;52.992;6.796;2023-07-20T02:29:59;6.00;;;3.55;;
54125;SDS011;40360;52.992;6.796;2023-07-20T02:32:24;9.30;;;4.03;;
54125;SDS011;40360;52.992;6.796;2023-07-20T02:34:50;4.03;;;3.63;;
54125;SDS011;40360;52.992;6.796;2023-07-20T02:37:16;6.97;;;4.60;;
54125;SDS011;40360;52.992;6.796;2023-07-20T02:39:42;4.93;;;4.18;;
54125;SDS011;40360;52.992;6.796;2023-07-20T02:42:08;6.47;;;4.68;;
54125;SDS011;40360;52.992;6.796;2023-07-20T02:44:33;6.50;;;4.95;;
54125;SDS011;40360;52.992;6.796;2023-07-20T02:46:59;6.68;;;4.85;;
54125;SDS011;40360;52.992;6.796;2023-07-20T02:49:24;9.00;;;5.80;;
54125;SDS011;40360;52.992;6.796;2023-07-20T02:51:51;5.60;;;5.10;;
54125;SDS011;40360;52.992;6.796;2023-07-20T02:54:16;6.55;;;5.80;;
54125;SDS011;40360;52.992;6.796;2023-07-20T02:56:42;6.75;;;5.78;;
54125;SDS011;40360;52.992;6.796;2023-07-20T02:59:08;5.80;;;4.18;;
54125;SDS011;40360;52.992;6.796;2023-07-20T03:01:33;5.55;;;4.82;;
54125;SDS011;40360;52.992;6.796;2023-07-20T03:03:59;7.20;;;5.90;;
54125;SDS011;40360;52.992;6.796;2023-07-20T03:06:25;7.32;;;5.85;;
54125;SDS011;40360;52.992;6.796;2023-07-20T03:08:50;7.72;;;5.75;;
54125;SDS011;40360;52.992;6.796;2023-07-20T03:11:18;8.13;;;6.88;;
54125;SDS011;40360;52.992;6.796;2023-07-20T03:13:44;7.90;;;6.72;;
54125;SDS011;40360;52.992;6.796;2023-07-20T03:16:10;7.53;;;6.72;;
54125;SDS011;40360;52.992;6.796;2023-07-20T03:18:40;8.60;;;6.80;;
54125;SDS011;40360;52.992;6.796;2023-07-20T03:21:07;7.95;;;6.53;;
54125;SDS011;40360;52.992;6.796;2023-07-20T03:23:33;6.80;;;6.18;;
54125;SDS011;40360;52.992;6.796;2023-07-20T03:25:59;7.95;;;7.03;;
54125;SDS011;40360;52.992;6.796;2023-07-20T03:28:25;7.93;;;6.60;;
54125;SDS011;40360;52.992;6.796;2023-07-20T03:30:54;7.88;;;6.68;;
54125;SDS011;40360;52.992;6.796;2023-07-20T03:33:27;8.60;;;7.72;;
54125;SDS011;40360;52.992;6.796;2023-07-20T03:35:54;8.45;;;7.65;;
54125;SDS011;40360;52.992;6.796;2023-07-20T03:38:20;8.40;;;6.28;;
54125;SDS011;40360;52.992;6.796;2023-07-20T03:40:56;8.82;;;7.28;;
54125;SDS011;40360;52.992;6.796;2023-07-20T03:43:24;8.93;;;6.60;;
54125;SDS011;40360;52.992;6.796;2023-07-20T03:45:51;6.47;;;5.72;;
54125;SDS011;40360;52.992;6.796;2023-07-20T03:48:18;6.63;;;5.93;;
54125;SDS011;40360;52.992;6.796;2023-07-20T03:50:45;9.77;;;6.72;;
54125;SDS011;40360;52.992;6.796;2023-07-20T03:53:12;8.23;;;7.38;;
54125;SDS011;40360;52.992;6.796;2023-07-20T03:55:38;7.18;;;6.47;;
54125;SDS011;40360;52.992;6.796;2023-07-20T03:58:05;6.50;;;5.50;;
54125;SDS011;40360;52.992;6.796;2023-07-20T04:00:32;7.60;;;6.72;;
54125;SDS011;40360;52.992;6.796;2023-07-20T04:02:57;10.38;;;6.63;;
54125;SDS011;40360;52.992;6.796;2023-07-20T04:05:24;7.65;;;6.32;;
54125;SDS011;40360;52.992;6.796;2023-07-20T04:07:50;8.52;;;6.13;;
54125;SDS011;40360;52.992;6.796;2023-07-20T04:10:17;9.75;;;6.47;;
54125;SDS011;40360;52.992;6.796;2023-07-20T04:12:43;9.25;;;6.30;;
54125;SDS011;40360;52.992;6.796;2023-07-20T04:15:10;7.80;;;6.72;;
54125;SDS011;40360;52.992;6.796;2023-07-20T04:17:36;6.13;;;5.53;;
54125;SDS011;40360;52.992;6.796;2023-07-20T04:20:03;8.43;;;6.10;;
54125;SDS011;40360;52.992;6.796;2023-07-20T04:22:30;7.90;;;6.03;;
54125;SDS011;40360;52.992;6.796;2023-07-20T04:24:56;6.15;;;5.55;;
54125;SDS011;40360;52.992;6.796;2023-07-20T04:27:21;8.63;;;6.30;;
54125;SDS011;40360;52.992;6.796;2023-07-20T04:29:47;7.40;;;5.80;;
54125;SDS011;40360;52.992;6.796;2023-07-20T04:32:12;6.35;;;5.70;;
54125;SDS011;40360;52.992;6.796;2023-07-20T04:34:38;6.97;;;5.80;;
54125;SDS011;40360;52.992;6.796;2023-07-20T04:37:04;7.55;;;5.25;;
54125;SDS011;40360;52.992;6.796;2023-07-20T04:39:29;7.85;;;6.47;;
54125;SDS011;40360;52.992;6.796;2023-07-20T04:41:55;5.68;;;4.70;;
54125;SDS011;40360;52.992;6.796;2023-07-20T04:44:21;6.05;;;5.32;;
54125;SDS011;40360;52.992;6.796;2023-07-20T04:46:47;5.47;;;4.97;;
54125;SDS011;40360;52.992;6.796;2023-07-20T04:49:13;6.55;;;5.13;;
54125;SDS011;40360;52.992;6.796;2023-07-20T04:51:39;6.55;;;5.28;;
54125;SDS011;40360;52.992;6.796;2023-07-20T04:54:04;5.95;;;4.45;;
54125;SDS011;40360;52.992;6.796;2023-07-20T04:56:30;9.43;;;4.55;;
54125;SDS011;40360;52.992;6.796;2023-07-20T04:58:56;4.35;;;3.95;;
54125;SDS011;40360;52.992;6.796;2023-07-20T05:01:22;4.70;;;3.97;;
54125;SDS011;40360;52.992;6.796;2023-07-20T05:03:48;4.55;;;4.10;;
54125;SDS011;40360;52.992;6.796;2023-07-20T05:06:14;6.85;;;4.22;;
54125;SDS011;40360;52.992;6.796;2023-07-20T05:08:40;5.00;;;3.45;;
54125;SDS011;40360;52.992;6.796;2023-07-20T05:11:06;5.53;;;4.20;;
54125;SDS011;40360;52.992;6.796;2023-07-20T05:13:32;6.45;;;3.70;;
54125;SDS011;40360;52.992;6.796;2023-07-20T05:15:58;4.03;;;3.50;;
54125;SDS011;40360;52.992;6.796;2023-07-20T05:18:23;4.85;;;3.67;;
54125;SDS011;40360;52.992;6.796;2023-07-20T05:20:50;3.70;;;3.40;;
54125;SDS011;40360;52.992;6.796;2023-07-20T05:23:16;3.88;;;3.08;;
54125;SDS011;40360;52.992;6.796;2023-07-20T05:25:57;6.78;;;3.70;;
54125;SDS011;40360;52.992;6.796;2023-07-20T05:30:51;3.60;;;3.10;;
54125;SDS011;40360;52.992;6.796;2023-07-20T05:33:18;4.68;;;2.67;;
54125;SDS011;40360;52.992;6.796;2023-07-20T05:35:44;6.03;;;3.20;;
54125;SDS011;40360;52.992;6.796;2023-07-20T05:38:10;5.35;;;2.85;;
54125;SDS011;40360;52.992;6.796;2023-07-20T05:40:40;3.22;;;2.40;;
54125;SDS011;40360;52.992;6.796;2023-07-20T05:43:06;2.22;;;2.03;;
54125;SDS011;40360;52.992;6.796;2023-07-20T06:01:36;2.83;;;2.15;;
54125;SDS011;40360;52.992;6.796;2023-07-20T06:04:01;2.60;;;1.70;;
54125;SDS011;40360;52.992;6.796;2023-07-20T06:06:28;3.13;;;1.92;;
54125;SDS011;40360;52.992;6.796;2023-07-20T06:08:54;3.95;;;1.92;;
54125;SDS011;40360;52.992;6.796;2023-07-20T06:11:20;3.90;;;2.00;;
54125;SDS011;40360;52.992;6.796;2023-07-20T06:13:45;3.38;;;1.40;;
54125;SDS011;40360;52.992;6.796;2023-07-20T06:16:11;4.30;;;1.50;;
54125;SDS011;40360;52.992;6.796;2023-07-20T06:18:37;2.83;;;1.65;;
54125;SDS011;40360;52.992;6.796;2023-07-20T06:21:03;4.35;;;1.92;;
54125;SDS011;40360;52.992;6.796;2023-07-20T06:23:28;3.38;;;1.77;;
54125;SDS011;40360;52.992;6.796;2023-07-20T06:25:54;2.55;;;1.67;;
54125;SDS011;40360;52.992;6.796;2023-07-20T06:28:19;2.13;;;1.63;;
54125;SDS011;40360;52.992;6.796;2023-07-20T06:30:45;4.65;;;1.77;;
54125;SDS011;40360;52.992;6.796;2023-07-20T06:33:10;3.95;;;1.70;;
54125;SDS011;40360;52.992;6.796;2023-07-20T06:35:36;2.83;;;1.88;;
54125;SDS011;40360;52.992;6.796;2023-07-20T06:38:02;3.80;;;2.20;;
54125;SDS011;40360;52.992;6.796;2023-07-20T06:40:29;2.20;;;1.70;;
54125;SDS011;40360;52.992;6.796;2023-07-20T06:42:55;3.55;;;1.35;;
54125;SDS011;40360;52.992;6.796;2023-07-20T06:45:21;2.15;;;1.45;;
54125;SDS011;40360;52.992;6.796;2023-07-20T06:47:46;3.33;;;1.33;;
54125;SDS011;40360;52.992;6.796;2023-07-20T06:50:12;4.82;;;1.58;;
54125;SDS011;40360;52.992;6.796;2023-07-20T06:52:38;2.40;;;1.65;;
54125;SDS011;40360;52.992;6.796;2023-07-20T06:55:05;3.40;;;1.38;;
54125;SDS011;40360;52.992;6.796;2023-07-20T06:57:31;4.43;;;1.58;;
54125;SDS011;40360;52.992;6.796;2023-07-20T06:59:57;2.72;;;1.40;;
54125;SDS011;40360;52.992;6.796;2023-07-20T07:02:22;2.53;;;1.83;;
54125;SDS011;40360;52.992;6.796;2023-07-20T07:04:48;2.50;;;1.70;;
54125;SDS011;40360;52.992;6.796;2023-07-20T07:07:14;5.10;;;1.70;;
54125;SDS011;40360;52.992;6.796;2023-07-20T07:09:40;6.30;;;1.38;;
54125;SDS011;40360;52.992;6.796;2023-07-20T07:12:06;1.92;;;1.33;;
54125;SDS011;40360;52.992;6.796;2023-07-20T07:14:32;4.25;;;1.20;;
54125;SDS011;40360;52.992;6.796;2023-07-20T07:16:58;1.98;;;1.17;;
54125;SDS011;40360;52.992;6.796;2023-07-20T07:19:23;4.10;;;1.58;;
54125;SDS011;40360;52.992;6.796;2023-07-20T07:21:49;4.97;;;1.20;;
54125;SDS011;40360;52.992;6.796;2023-07-20T07:24:14;3.17;;;1.35;;
54125;SDS011;40360;52.992;6.796;2023-07-20T07:26:40;2.08;;;1.15;;
54125;SDS011;40360;52.992;6.796;2023-07-20T07:29:06;2.90;;;1.45;;
54125;SDS011;40360;52.992;6.796;2023-07-20T07:31:33;3.35;;;1.50;;
54125;SDS011;40360;52.992;6.796;2023-07-20T07:34:00;7.65;;;1.50;;
54125;SDS011;40360;52.992;6.796;2023-07-20T07:36:25;2.10;;;1.17;;
54125;SDS011;40360;52.992;6.796;2023-07-20T07:38:51;2.35;;;1.48;;
54125;SDS011;40360;52.992;6.796;2023-07-20T07:41:17;5.22;;;1.58;;
54125;SDS011;40360;52.992;6.796;2023-07-20T07:43:42;3.92;;;1.45;;
54125;SDS011;40360;52.992;6.796;2023-07-20T07:46:08;1.98;;;1.05;;
54125;SDS011;40360;52.992;6.796;2023-07-20T07:48:33;2.08;;;1.20;;
54125;SDS011;40360;52.992;6.796;2023-07-20T07:50:59;5.13;;;1.38;;
54125;SDS011;40360;52.992;6.796;2023-07-20T07:53:25;2.30;;;1.33;;
54125;SDS011;40360;52.992;6.796;2023-07-20T07:55:51;2.58;;;1.15;;
54125;SDS011;40360;52.992;6.796;2023-07-20T07:58:17;3.15;;;1.40;;
54125;SDS011;40360;52.992;6.796;2023-07-20T08:00:42;3.08;;;1.35;;
54125;SDS011;40360;52.992;6.796;2023-07-20T08:03:09;2.95;;;1.10;;
54125;SDS011;40360;52.992;6.796;2023-07-20T08:05:35;2.35;;;1.20;;
54125;SDS011;40360;52.992;6.796;2023-07-20T08:08:01;3.10;;;1.40;;
54125;SDS011;40360;52.992;6.796;2023-07-20T08:10:28;8.70;;;1.85;;
54125;SDS011;40360;52.992;6.796;2023-07-20T08:12:54;4.63;;;1.35;;
54125;SDS011;40360;52.992;6.796;2023-07-20T08:15:20;2.53;;;1.52;;
54125;SDS011;40360;52.992;6.796;2023-07-20T08:17:46;3.22;;;1.55;;
54125;SDS011;40360;52.992;6.796;2023-07-20T08:20:13;6.28;;;1.75;;
54125;SDS011;40360;52.992;6.796;2023-07-20T08:22:41;4.97;;;1.63;;
54125;SDS011;40360;52.992;6.796;2023-07-20T08:25:07;3.92;;;1.63;;
54125;SDS011;40360;52.992;6.796;2023-07-20T08:27:33;5.60;;;2.13;;
54125;SDS011;40360;52.992;6.796;2023-07-20T08:29:59;3.05;;;1.60;;
54125;SDS011;40360;52.992;6.796;2023-07-20T08:32:25;5.93;;;2.03;;
54125;SDS011;40360;52.992;6.796;2023-07-20T08:34:51;2.70;;;1.30;;
54125;SDS011;40360;52.992;6.796;2023-07-20T08:37:17;3.03;;;1.65;;
54125;SDS011;40360;52.992;6.796;2023-07-20T08:39:43;5.32;;;1.67;;
54125;SDS011;40360;52.992;6.796;2023-07-20T08:42:09;2.58;;;1.48;;
54125;SDS011;40360;52.992;6.796;2023-07-20T08:44:36;2.13;;;1.40;;
54125;SDS011;40360;52.992;6.796;2023-07-20T08:47:04;4.35;;;1.50;;
54125;SDS011;40360;52.992;6.796;2023-07-20T08:49:32;3.90;;;1.50;;
54125;SDS011;40360;52.992;6.796;2023-07-20T08:51:59;4.00;;;1.48;;
54125;SDS011;40360;52.992;6.796;2023-07-20T08:54:30;4.10;;;1.33;;
54125;SDS011;40360;52.992;6.796;2023-07-20T08:57:02;4.68;;;1.35;;
54125;SDS011;40360;52.992;6.796;2023-07-20T08:59:29;3.58;;;1.65;;
54125;SDS011;40360;52.992;6.796;2023-07-20T09:01:56;3.08;;;1.20;;
54125;SDS011;40360;52.992;6.796;2023-07-20T09:04:23;2.25;;;1.60;;
54125;SDS011;40360;52.992;6.796;2023-07-20T09:06:49;2.38;;;1.30;;
54125;SDS011;40360;52.992;6.796;2023-07-20T09:09:15;5.00;;;1.50;;
54125;SDS011;40360;52.992;6.796;2023-07-20T09:11:41;3.63;;;1.42;;
54125;SDS011;40360;52.992;6.796;2023-07-20T09:14:08;2.28;;;1.25;;
54125;SDS011;40360;52.992;6.796;2023-07-20T09:16:48;3.28;;;1.42;;
54125;SDS011;40360;52.992;6.796;2023-07-20T09:19:19;3.80;;;1.55;;
54125;SDS011;40360;52.992;6.796;2023-07-20T09:21:49;2.22;;;1.20;;
54125;SDS011;40360;52.992;6.796;2023-07-20T09:24:17;2.97;;;1.10;;
54125;SDS011;40360;52.992;6.796;2023-07-20T09:26:45;1.55;;;0.98;;
54125;SDS011;40360;52.992;6.796;2023-07-20T09:29:13;3.05;;;1.33;;
54125;SDS011;40360;52.992;6.796;2023-07-20T09:31:39;2.45;;;1.23;;
54125;SDS011;40360;52.992;6.796;2023-07-20T09:34:06;2.67;;;1.38;;
54125;SDS011;40360;52.992;6.796;2023-07-20T09:36:35;2.05;;;1.45;;
54125;SDS011;40360;52.992;6.796;2023-07-20T09:39:02;3.15;;;1.63;;
54125;SDS011;40360;52.992;6.796;2023-07-20T09:41:29;4.90;;;1.67;;
54125;SDS011;40360;52.992;6.796;2023-07-20T09:43:54;3.90;;;1.70;;
54125;SDS011;40360;52.992;6.796;2023-07-20T09:46:20;3.72;;;2.10;;
54125;SDS011;40360;52.992;6.796;2023-07-20T09:48:52;4.13;;;1.98;;
54125;SDS011;40360;52.992;6.796;2023-07-20T09:51:21;3.40;;;1.60;;
54125;SDS011;40360;52.992;6.796;2023-07-20T09:53:48;2.83;;;2.03;;
54125;SDS011;40360;52.992;6.796;2023-07-20T09:56:14;2.67;;;1.90;;
54125;SDS011;40360;52.992;6.796;2023-07-20T09:58:42;3.30;;;1.40;;
54125;SDS011;40360;52.992;6.796;2023-07-20T10:01:10;4.47;;;1.55;;
54125;SDS011;40360;52.992;6.796;2023-07-20T10:03:39;5.22;;;2.72;;
54125;SDS011;40360;52.992;6.796;2023-07-20T10:06:10;4.00;;;1.92;;
54125;SDS011;40360;52.992;6.796;2023-07-20T10:08:41;3.95;;;2.17;;
54125;SDS011;40360;52.992;6.796;2023-07-20T10:11:07;2.35;;;1.50;;
54125;SDS011;40360;52.992;6.796;2023-07-20T10:13:38;3.08;;;1.70;;
54125;SDS011;40360;52.992;6.796;2023-07-20T10:16:10;3.78;;;1.95;;
54125;SDS011;40360;52.992;6.796;2023-07-20T10:18:55;3.45;;;2.00;;
54125;SDS011;40360;52.992;6.796;2023-07-20T10:21:37;6.20;;;1.83;;
54125;SDS011;40360;52.992;6.796;2023-07-20T10:24:12;4.72;;;1.70;;
54125;SDS011;40360;52.992;6.796;2023-07-20T10:26:39;4.93;;;1.52;;
54125;SDS011;40360;52.992;6.796;2023-07-20T10:29:05;4.25;;;1.60;;
54125;SDS011;40360;52.992;6.796;2023-07-20T10:31:31;3.35;;;2.05;;
54125;SDS011;40360;52.992;6.796;2023-07-20T10:33:58;4.32;;;2.28;;
54125;SDS011;40360;52.992;6.796;2023-07-20T10:36:25;4.85;;;2.05;;
54125;SDS011;40360;52.992;6.796;2023-07-20T10:38:57;5.10;;;1.75;;
54125;SDS011;40360;52.992;6.796;2023-07-20T10:41:31;5.30;;;2.20;;
54125;SDS011;40360;52.992;6.796;2023-07-20T10:44:03;4.68;;;1.80;;
54125;SDS011;40360;52.992;6.796;2023-07-20T10:46:35;5.82;;;2.17;;
54125;SDS011;40360;52.992;6.796;2023-07-20T10:49:04;3.47;;;1.83;;
54125;SDS011;40360;52.992;6.796;2023-07-20T10:51:41;9.18;;;2.30;;
54125;SDS011;40360;52.992;6.796;2023-07-20T10:56:43;5.60;;;2.00;;
54125;SDS011;40360;52.992;6.796;2023-07-20T10:59:18;4.00;;;1.77;;
54125;SDS011;40360;52.992;6.796;2023-07-20T11:01:46;2.53;;;1.17;;
54125;SDS011;40360;52.992;6.796;2023-07-20T11:04:14;4.75;;;1.40;;
54125;SDS011;40360;52.992;6.796;2023-07-20T11:06:44;4.80;;;1.80;;
54125;SDS011;40360;52.992;6.796;2023-07-20T11:09:14;2.55;;;1.63;;
54125;SDS011;40360;52.992;6.796;2023-07-20T11:11:48;3.25;;;1.73;;
54125;SDS011;40360;52.992;6.796;2023-07-20T11:14:21;2.50;;;1.35;;
54125;SDS011;40360;52.992;6.796;2023-07-20T11:16:51;2.67;;;1.13;;
54125;SDS011;40360;52.992;6.796;2023-07-20T11:21:44;3.70;;;1.42;;
54125;SDS011;40360;52.992;6.796;2023-07-20T11:24:11;1.67;;;1.20;;
54125;SDS011;40360;52.992;6.796;2023-07-20T11:26:48;3.25;;;1.27;;
54125;SDS011;40360;52.992;6.796;2023-07-20T11:29:15;5.45;;;1.40;;
54125;SDS011;40360;52.992;6.796;2023-07-20T11:31:42;4.78;;;1.30;;
54125;SDS011;40360;52.992;6.796;2023-07-20T11:34:15;3.13;;;1.60;;
54125;SDS011;40360;52.992;6.796;2023-07-20T11:36:46;1.80;;;1.42;;
54125;SDS011;40360;52.992;6.796;2023-07-20T11:39:14;2.90;;;1.50;;
54125;SDS011;40360;52.992;6.796;2023-07-20T11:41:51;3.50;;;2.15;;
54125;SDS011;40360;52.992;6.796;2023-07-20T11:44:18;2.45;;;1.48;;
54125;SDS011;40360;52.992;6.796;2023-07-20T11:46:46;4.30;;;1.58;;
54125;SDS011;40360;52.992;6.796;2023-07-20T11:49:11;3.10;;;1.50;;
54125;SDS011;40360;52.992;6.796;2023-07-20T11:51:38;2.65;;;1.08;;
54125;SDS011;40360;52.992;6.796;2023-07-20T11:54:05;4.30;;;1.42;;
54125;SDS011;40360;52.992;6.796;2023-07-20T11:56:33;4.07;;;1.20;;
54125;SDS011;40360;52.992;6.796;2023-07-20T11:58:59;3.55;;;1.50;;
54125;SDS011;40360;52.992;6.796;2023-07-20T12:01:26;3.45;;;1.30;;
54125;SDS011;40360;52.992;6.796;2023-07-20T12:03:57;3.95;;;1.50;;
54125;SDS011;40360;52.992;6.796;2023-07-20T12:06:24;6.57;;;1.77;;
54125;SDS011;40360;52.992;6.796;2023-07-20T12:08:54;4.72;;;1.67;;
54125;SDS011;40360;52.992;6.796;2023-07-20T12:11:37;3.22;;;1.10;;
54125;SDS011;40360;52.992;6.796;2023-07-20T12:14:06;4.35;;;1.33;;
54125;SDS011;40360;52.992;6.796;2023-07-20T12:16:34;2.15;;;1.08;;
54125;SDS011;40360;52.992;6.796;2023-07-20T12:19:07;3.47;;;1.27;;
54125;SDS011;40360;52.992;6.796;2023-07-20T12:21:38;3.08;;;1.10;;
54125;SDS011;40360;52.992;6.796;2023-07-20T12:24:06;3.45;;;1.85;;
54125;SDS011;40360;52.992;6.796;2023-07-20T12:26:34;4.30;;;1.30;;
54125;SDS011;40360;52.992;6.796;2023-07-20T12:28:59;3.30;;;1.20;;
54125;SDS011;40360;52.992;6.796;2023-07-20T12:31:26;2.17;;;1.38;;
54125;SDS011;40360;52.992;6.796;2023-07-20T12:33:52;1.90;;;1.25;;
54125;SDS011;40360;52.992;6.796;2023-07-20T12:36:20;4.97;;;1.42;;
54125;SDS011;40360;52.992;6.796;2023-07-20T12:38:46;2.80;;;1.23;;
54125;SDS011;40360;52.992;6.796;2023-07-20T12:41:12;3.33;;;1.10;;
54125;SDS011;40360;52.992;6.796;2023-07-20T12:43:39;4.80;;;1.45;;
54125;SDS011;40360;52.992;6.796;2023-07-20T12:46:08;2.90;;;1.48;;
54125;SDS011;40360;52.992;6.796;2023-07-20T12:48:35;3.88;;;1.52;;
54125;SDS011;40360;52.992;6.796;2023-07-20T12:51:06;3.28;;;1.40;;
54125;SDS011;40360;52.992;6.796;2023-07-20T12:53:32;1.92;;;1.55;;
54125;SDS011;40360;52.992;6.796;2023-07-20T12:55:59;4.22;;;1.15;;
54125;SDS011;40360;52.992;6.796;2023-07-20T12:58:24;3.13;;;1.10;;
54125;SDS011;40360;52.992;6.796;2023-07-20T13:00:50;2.53;;;1.38;;
54125;SDS011;40360;52.992;6.796;2023-07-20T13:03:16;2.95;;;1.40;;
54125;SDS011;40360;52.992;6.796;2023-07-20T13:05:43;2.03;;;1.25;;
54125;SDS011;40360;52.992;6.796;2023-07-20T13:08:09;3.45;;;1.40;;
54125;SDS011;40360;52.992;6.796;2023-07-20T13:10:35;3.38;;;1.35;;
54125;SDS011;40360;52.992;6.796;2023-07-20T13:13:01;3.67;;;1.50;;
54125;SDS011;40360;52.992;6.796;2023-07-20T13:15:30;4.63;;;1.75;;
54125;SDS011;40360;52.992;6.796;2023-07-20T13:17:59;1.80;;;1.20;;
54125;SDS011;40360;52.992;6.796;2023-07-20T13:20:25;9.27;;;2.70;;
54125;SDS011;40360;52.992;6.796;2023-07-20T13:22:51;5.78;;;1.67;;
54125;SDS011;40360;52.992;6.796;2023-07-20T13:25:18;3.42;;;2.10;;
54125;SDS011;40360;52.992;6.796;2023-07-20T13:27:44;3.05;;;1.63;;
54125;SDS011;40360;52.992;6.796;2023-07-20T13:30:10;4.57;;;1.70;;
54125;SDS011;40360;52.992;6.796;2023-07-20T13:32:41;3.30;;;1.88;;
54125;SDS011;40360;52.992;6.796;2023-07-20T13:35:08;8.73;;;2.22;;
54125;SDS011;40360;52.992;6.796;2023-07-20T13:37:34;4.72;;;1.63;;
54125;SDS011;40360;52.992;6.796;2023-07-20T13:40:00;2.67;;;1.50;;
54125;SDS011;40360;52.992;6.796;2023-07-20T13:42:26;3.85;;;1.40;;
54125;SDS011;40360;52.992;6.796;2023-07-20T13:44:52;3.83;;;1.80;;
54125;SDS011;40360;52.992;6.796;2023-07-20T13:47:17;4.45;;;1.85;;
54125;SDS011;40360;52.992;6.796;2023-07-20T13:49:43;2.90;;;1.40;;
54125;SDS011;40360;52.992;6.796;2023-07-20T13:52:09;2.90;;;1.38;;
54125;SDS011;40360;52.992;6.796;2023-07-20T13:54:34;4.55;;;1.70;;
54125;SDS011;40360;52.992;6.796;2023-07-20T13:57:00;3.35;;;1.55;;
54125;SDS011;40360;52.992;6.796;2023-07-20T13:59:26;3.10;;;1.80;;
54125;SDS011;40360;52.992;6.796;2023-07-20T14:01:51;4.05;;;1.50;;
54125;SDS011;40360;52.992;6.796;2023-07-20T14:04:17;2.90;;;1.52;;
54125;SDS011;40360;52.992;6.796;2023-07-20T14:06:42;5.18;;;1.75;;
54125;SDS011;40360;52.992;6.796;2023-07-20T14:09:09;3.47;;;1.60;;
54125;SDS011;40360;52.992;6.796;2023-07-20T14:11:34;3.00;;;1.60;;
54125;SDS011;40360;52.992;6.796;2023-07-20T14:14:00;3.88;;;1.42;;
54125;SDS011;40360;52.992;6.796;2023-07-20T14:16:25;3.22;;;1.30;;
54125;SDS011;40360;52.992;6.796;2023-07-20T14:18:51;5.35;;;2.03;;
54125;SDS011;40360;52.992;6.796;2023-07-20T14:21:17;4.18;;;1.67;;
54125;SDS011;40360;52.992;6.796;2023-07-20T14:23:45;2.90;;;1.50;;
54125;SDS011;40360;52.992;6.796;2023-07-20T14:26:11;3.40;;;1.38;;
54125;SDS011;40360;52.992;6.796;2023-07-20T14:28:37;4.95;;;1.45;;
54125;SDS011;40360;52.992;6.796;2023-07-20T14:31:03;3.00;;;1.20;;
54125;SDS011;40360;52.992;6.796;2023-07-20T14:33:30;4.13;;;1.50;;
54125;SDS011;40360;52.992;6.796;2023-07-20T14:35:56;2.60;;;1.33;;
54125;SDS011;40360;52.992;6.796;2023-07-20T14:38:22;3.35;;;1.35;;
54125;SDS011;40360;52.992;6.796;2023-07-20T14:40:47;1.33;;;1.08;;
54125;SDS011;40360;52.992;6.796;2023-07-20T14:43:13;4.00;;;1.80;;
54125;SDS011;40360;52.992;6.796;2023-07-20T14:45:40;2.58;;;1.27;;
54125;SDS011;40360;52.992;6.796;2023-07-20T14:48:07;2.50;;;1.40;;
54125;SDS011;40360;52.992;6.796;2023-07-20T14:50:33;3.60;;;1.60;;
54125;SDS011;40360;52.992;6.796;2023-07-20T14:52:59;3.50;;;1.45;;
54125;SDS011;40360;52.992;6.796;2023-07-20T14:55:25;2.35;;;1.20;;
54125;SDS011;40360;52.992;6.796;2023-07-20T14:57:50;3.45;;;1.70;;
54125;SDS011;40360;52.992;6.796;2023-07-20T15:00:16;2.38;;;1.50;;
54125;SDS011;40360;52.992;6.796;2023-07-20T15:02:42;2.28;;;1.48;;
54125;SDS011;40360;52.992;6.796;2023-07-20T15:05:09;3.28;;;1.75;;
54125;SDS011;40360;52.992;6.796;2023-07-20T15:07:35;3.35;;;1.48;;
54125;SDS011;40360;52.992;6.796;2023-07-20T15:10:02;1.88;;;1.42;;
54125;SDS011;40360;52.992;6.796;2023-07-20T15:12:29;2.13;;;1.35;;
54125;SDS011;40360;52.992;6.796;2023-07-20T15:15:28;3.40;;;1.77;;
54125;SDS011;40360;52.992;6.796;2023-07-20T15:17:47;3.47;;;1.67;;
54125;SDS011;40360;52.992;6.796;2023-07-20T15:20:14;3.25;;;1.60;;
54125;SDS011;40360;52.992;6.796;2023-07-20T15:22:41;2.88;;;1.58;;